createdAt,value
2024-03-05T00:00:56.791Z,98691.63
2024-03-05T00:05:59.795Z,98687.16
2024-03-05T00:11:05.305Z,98690.03
2024-03-05T00:16:09.111Z,98691.16
2024-03-05T00:21:11.992Z,98685.28
2024-03-05T00:26:19.471Z,98694.09
2024-03-05T00:31:22.633Z,98690.34
2024-03-05T00:36:26.352Z,98699.13
2024-03-05T00:41:30.651Z,98692.03
2024-03-05T00:46:34.295Z,98709.59
2024-03-05T00:51:37.194Z,98702.34
2024-03-05T00:56:41.659Z,98702.38
2024-03-05T01:01:44.691Z,98680.84
2024-03-05T01:06:47.670Z,98687.03
2024-03-05T01:11:52.130Z,98694.66
2024-03-05T01:16:55.145Z,98701.16
2024-03-05T01:21:59.427Z,98709.53
2024-03-05T01:27:06.628Z,98700.44
2024-03-05T01:32:10.666Z,98704.03
2024-03-05T01:37:13.668Z,98696.56
2024-03-05T01:42:18.154Z,98698.03
2024-03-05T01:47:21.886Z,98682.47
2024-03-05T01:52:25.422Z,98668.28
2024-03-05T01:57:29.993Z,98675.75
2024-03-05T02:02:33.057Z,98681.97
2024-03-05T02:07:36.637Z,98693.72
2024-03-05T02:12:42.056Z,98694.31
2024-03-05T02:17:45.083Z,98704.75
2024-03-05T02:22:49.412Z,98697.88
2024-03-05T02:27:52.511Z,98706.06
2024-03-05T02:32:55.598Z,98703.84
2024-03-05T02:37:59.953Z,98708.91
2024-03-05T02:43:02.907Z,98710.13
2024-03-05T02:48:07.417Z,98710.81
2024-03-05T02:53:12.004Z,98710.00
2024-03-05T02:58:15.229Z,98711.53
2024-03-05T03:03:18.184Z,98722.66
2024-03-05T03:08:22.750Z,98720.13
2024-03-05T03:13:25.673Z,98722.22
2024-03-05T03:18:28.607Z,98725.56
2024-03-05T03:23:33.012Z,98731.38
2024-03-05T03:28:35.924Z,98741.84
2024-03-05T03:33:40.305Z,98738.34
2024-03-05T03:38:45.055Z,98739.78
2024-03-05T03:43:48.385Z,98752.81
2024-03-05T03:48:52.003Z,98748.19
2024-03-05T03:53:56.309Z,98748.13
2024-03-05T03:58:59.208Z,98749.00
2024-03-05T04:04:03.410Z,98748.38
2024-03-05T04:09:09.447Z,98753.28
2024-03-05T04:14:12.619Z,98750.47
2024-03-05T04:19:15.562Z,98752.91
2024-03-05T04:24:21.595Z,98754.06
2024-03-05T04:29:31.231Z,98750.75
2024-03-05T04:34:36.528Z,98752.91
2024-03-05T04:39:43.968Z,98755.09
2024-03-05T04:44:47.733Z,98756.69
2024-03-05T04:49:50.698Z,98761.06
2024-03-05T04:54:55.374Z,98753.91
2024-03-05T04:59:59.196Z,98758.06
2024-03-05T05:05:04.227Z,98747.13
2024-03-05T05:10:10.534Z,98751.72
2024-03-05T05:15:14.003Z,98745.22
2024-03-05T05:20:19.435Z,98743.22
2024-03-05T05:25:24.937Z,98748.91
2024-03-05T05:30:27.913Z,98750.03
2024-03-05T05:35:30.839Z,98740.59
2024-03-05T05:40:35.179Z,98752.09
2024-03-05T05:45:38.906Z,98758.97
2024-03-05T05:50:43.477Z,98758.69
2024-03-05T05:55:47.939Z,98769.16
2024-03-05T06:00:51.856Z,98777.16
2024-03-05T06:05:54.809Z,98788.50
2024-03-05T06:10:59.275Z,98791.69
2024-03-05T06:16:02.297Z,98785.56
2024-03-05T06:21:06.581Z,98781.75
2024-03-05T06:26:11.165Z,98784.13
2024-03-05T06:31:14.052Z,98782.03
2024-03-05T06:36:17.001Z,98791.34
2024-03-05T06:41:21.322Z,98793.28
2024-03-05T06:46:30.685Z,98796.22
2024-03-05T06:51:42.883Z,98807.25
2024-03-05T06:56:47.223Z,98812.44
2024-03-05T07:01:50.206Z,98814.78
2024-03-05T07:06:56.025Z,98817.81
2024-03-05T07:12:00.792Z,98816.00
2024-03-05T07:17:03.842Z,98807.22
2024-03-05T07:22:08.202Z,98809.03
2024-03-05T07:27:13.183Z,98821.25
2024-03-05T07:32:16.952Z,98828.94
2024-03-05T07:37:20.124Z,98833.94
2024-03-05T07:42:24.378Z,98829.63
2024-03-05T07:47:27.292Z,98831.94
2024-03-05T07:52:30.261Z,98842.34
2024-03-05T07:57:35.793Z,98845.13
2024-03-05T08:02:39.749Z,98853.47
2024-03-05T08:07:42.681Z,98855.84
2024-03-05T08:12:48.450Z,98852.75
2024-03-05T08:17:51.557Z,98859.94
2024-03-05T08:22:55.238Z,98843.50
2024-03-05T08:28:00.243Z,98853.47
2024-03-05T08:33:04.754Z,98857.66
2024-03-05T08:38:10.383Z,98858.38
2024-03-05T08:43:15.427Z,98849.59
2024-03-05T08:48:18.867Z,98853.13
2024-03-05T08:53:21.880Z,98852.59
2024-03-05T08:58:26.200Z,98858.44
2024-03-05T09:03:29.111Z,98855.44
2024-03-05T09:08:32.180Z,98864.88
2024-03-05T09:13:36.496Z,98864.53
2024-03-05T09:18:39.418Z,98864.97
2024-03-05T09:23:42.325Z,98865.41
2024-03-05T09:28:46.688Z,98878.63
2024-03-05T09:33:49.610Z,98873.84
2024-03-05T09:38:52.523Z,98884.81
2024-03-05T09:43:58.136Z,98877.22
2024-03-05T09:49:10.902Z,98891.19
2024-03-05T09:54:17.969Z,98891.72
2024-03-05T09:59:22.494Z,98902.13
2024-03-05T10:04:27.945Z,98906.75
2024-03-05T10:09:31.580Z,98907.03
2024-03-05T10:14:35.951Z,98920.63
2024-03-05T10:19:44.594Z,98920.53
2024-03-05T10:24:49.345Z,98926.41
2024-03-05T10:29:53.772Z,98917.63
2024-03-05T10:34:57.376Z,98922.69
2024-03-05T10:40:00.398Z,98930.94
2024-03-05T10:45:05.027Z,98929.66
2024-03-05T10:50:13.648Z,98927.66
2024-03-05T10:55:22.498Z,98931.03
2024-03-05T11:00:27.634Z,98937.44
2024-03-05T11:05:32.829Z,98928.31
2024-03-05T11:10:36.610Z,98925.97
2024-03-05T11:15:41.254Z,98934.53
2024-03-05T11:20:44.358Z,98929.94
2024-03-05T11:25:48.654Z,98923.16
2024-03-05T11:31:10.616Z,98920.66
2024-03-05T11:36:23.150Z,98914.00
2024-03-05T11:41:26.326Z,98910.00
2024-03-05T11:46:54.470Z,98920.22
2024-03-05T11:52:00.528Z,98909.44
2024-03-05T11:57:05.259Z,98906.94
2024-03-05T12:02:12.717Z,98911.19
2024-03-05T12:07:15.796Z,98908.22
2024-03-05T12:12:22.826Z,98916.13
2024-03-05T12:17:27.494Z,98911.28
2024-03-05T12:22:30.602Z,98914.50
2024-03-05T12:27:35.456Z,98909.13
2024-03-05T12:32:43.527Z,98913.25
2024-03-05T12:37:48.616Z,98916.09
2024-03-05T12:42:53.692Z,98916.34
2024-03-05T12:48:00.686Z,98918.00
2024-03-05T12:53:07.179Z,98923.88
2024-03-05T12:58:12.490Z,98930.50
2024-03-05T13:03:17.780Z,98926.97
2024-03-05T13:08:20.848Z,98922.81
2024-03-05T13:13:23.822Z,98923.81
2024-03-05T13:18:28.093Z,98938.81
2024-03-05T13:23:31.005Z,98933.56
2024-03-05T13:28:33.953Z,98938.63
2024-03-05T13:33:38.223Z,98940.41
2024-03-05T13:38:41.210Z,98931.28
2024-03-05T13:43:44.138Z,98938.38
2024-03-05T13:48:48.467Z,98942.34
2024-03-05T13:53:51.740Z,98940.97
2024-03-05T13:58:54.766Z,98953.25
2024-03-05T14:03:59.649Z,98944.78
2024-03-05T14:09:02.584Z,98953.09
2024-03-05T14:14:06.004Z,98951.84
2024-03-05T14:19:10.373Z,98966.50
2024-03-05T14:24:14.173Z,98959.41
2024-03-05T14:29:17.187Z,98952.50
2024-03-05T14:34:22.550Z,98958.75
2024-03-05T14:39:25.501Z,98958.47
2024-03-05T14:44:28.382Z,98961.00
2024-03-05T14:49:32.787Z,98963.72
2024-03-05T14:54:35.785Z,98977.81
2024-03-05T14:59:38.697Z,98973.25
2024-03-05T15:04:43.423Z,98974.44
2024-03-05T15:09:46.561Z,98969.16
2024-03-05T15:14:50.170Z,98980.97
2024-03-05T15:19:54.524Z,98987.28
2024-03-05T15:24:57.624Z,98993.28
2024-03-05T15:30:00.554Z,98991.03
2024-03-05T15:35:05.704Z,98999.34
2024-03-05T15:40:16.401Z,99006.31
2024-03-05T15:45:20.394Z,99007.25
2024-03-05T15:50:26.565Z,99000.72
2024-03-05T15:55:30.427Z,99004.34
2024-03-05T16:00:37.262Z,99002.44
2024-03-05T16:05:52.459Z,99003.59
2024-03-05T16:11:03.681Z,99010.88
2024-03-05T16:16:08.704Z,99009.41
2024-03-05T16:21:14.130Z,99018.41
2024-03-05T16:26:17.177Z,99024.63
2024-03-05T16:31:22.973Z,99028.59
2024-03-05T16:36:27.412Z,99041.84
2024-03-05T16:41:30.307Z,99038.81
2024-03-05T16:46:34.952Z,99044.34
2024-03-05T16:51:41.122Z,99050.59
2024-03-05T16:56:45.115Z,99052.13
2024-03-05T17:01:48.096Z,99050.13
2024-03-05T17:06:52.421Z,99062.81
2024-03-05T17:11:55.301Z,99069.31
2024-03-05T17:16:58.598Z,99085.53
2024-03-05T17:22:04.641Z,99082.78
2024-03-05T17:27:07.815Z,99087.94
2024-03-05T17:32:10.960Z,99095.53
2024-03-05T17:37:15.671Z,99090.16
2024-03-05T17:42:18.642Z,99090.34
2024-03-05T17:47:21.624Z,99088.16
2024-03-05T17:52:28.247Z,99093.41
2024-03-05T17:57:32.976Z,99093.22
2024-03-05T18:02:36.535Z,99085.41
2024-03-05T18:07:41.522Z,99082.28
2024-03-05T18:12:44.993Z,99083.25
2024-03-05T18:17:49.838Z,99088.16
2024-03-05T18:22:54.386Z,99092.44
2024-03-05T18:27:57.296Z,99099.00
2024-03-05T18:33:01.326Z,99118.47
2024-03-05T18:43:12.596Z,99123.00
2024-03-05T18:48:16.406Z,99123.06
2024-03-05T18:53:26.031Z,99131.56
2024-03-05T18:58:34.849Z,99136.50
2024-03-05T19:03:37.756Z,99131.25
2024-03-05T19:08:42.029Z,99125.31
2024-03-05T19:13:45.802Z,99126.13
2024-03-05T19:18:48.755Z,99139.56
2024-03-05T19:23:52.993Z,99139.25
2024-03-05T19:28:55.883Z,99127.34
2024-03-05T19:33:59.497Z,99133.16
2024-03-05T19:39:05.219Z,99138.44
2024-03-05T19:44:08.978Z,99139.44
2024-03-05T19:49:11.926Z,99141.09
2024-03-05T19:54:16.534Z,99135.19
2024-03-05T19:59:19.465Z,99139.50
2024-03-05T20:04:22.358Z,99142.81
2024-03-05T20:09:26.615Z,99150.34
2024-03-05T20:14:29.721Z,99135.47
2024-03-05T20:19:35.432Z,99150.25
2024-03-05T20:24:39.791Z,99144.84
2024-03-05T20:29:42.689Z,99156.00
2024-03-05T20:34:49.442Z,99158.59
2024-03-05T20:39:57.249Z,99156.00
2024-03-05T20:45:00.238Z,99160.59
2024-03-05T20:50:03.323Z,99165.31
2024-03-05T20:55:09.859Z,99166.84
2024-03-05T21:00:16.385Z,99175.19
2024-03-05T21:05:20.227Z,99170.56
2024-03-05T21:10:24.878Z,99173.19
2024-03-05T21:15:27.899Z,99172.72
2024-03-05T21:20:31.330Z,99172.09
2024-03-05T21:25:44.618Z,99174.72
2024-03-05T21:31:00.786Z,99175.19
2024-03-05T21:36:03.838Z,99182.09
2024-03-05T21:41:10.091Z,99176.16
2024-03-05T21:46:13.980Z,99187.31
2024-03-05T21:51:17.032Z,99183.22
2024-03-05T21:56:21.956Z,99182.09
2024-03-05T22:01:25.100Z,99178.81
2024-03-05T22:06:28.008Z,99187.34
2024-03-05T22:11:32.299Z,99194.84
2024-03-05T22:16:35.212Z,99200.72
2024-03-05T22:21:39.064Z,99200.06
2024-03-05T22:26:43.422Z,99213.63
2024-03-05T22:31:46.383Z,99222.75
2024-03-05T22:36:49.323Z,99228.53
2024-03-05T22:41:53.935Z,99222.94
2024-03-05T22:46:56.917Z,99230.94
2024-03-05T22:51:59.825Z,99238.03
2024-03-05T22:57:05.581Z,99242.56
2024-03-05T23:02:08.543Z,99245.91
2024-03-05T23:07:11.521Z,99246.53
2024-03-05T23:12:16.509Z,99243.72
2024-03-05T23:17:19.570Z,99247.63
2024-03-05T23:22:23.244Z,99242.69
2024-03-05T23:27:27.605Z,99260.13
2024-03-05T23:32:31.286Z,99257.34
2024-03-05T23:37:35.201Z,99261.50
2024-03-05T23:42:40.096Z,99270.56
2024-03-05T23:47:43.110Z,99277.84
2024-03-05T23:52:46.116Z,99295.31
2024-03-05T23:57:50.465Z,99293.84
